Hauptseite
METAR-TAF:

METAR-TAF

Flughäfen :

Flughafen Kosrae

Kosrae, Mikronesien

Breite: 05-21N, Länge: 162-57E, Höhe: 3 m

Beobachtung

Neuester Wetterbericht von vor 35 Minuten, um 20:50 UTC
Wind 4 kt aus Nord/Nordost
Temperatur 29°C
Luftfeuchtigkeit 79%
Luftdruck 1011 hPa
Sichtweite: 16.1 km
Durchbrochene Bewölkung in der Höhe von 2200 ft
Durchbrochene Bewölkung in der Höhe von 30000 ft

METAR: PTSA 232050Z 02004KT 10SM BKN022 BKN300 29/25 A2984

Zeit: 08:25 (21:25 UTC)

Prognose

Neuester Wetterbericht von vor 3 Stunden und 58 Minuten, um 17:27 UTC
Gültige Prognose vom 23 um 18 UTC bis 24 um 18 UTC
Wind 6 kt aus Ost/Südost
Sichtweite: 10 km
Leicht bewölkt in der Höhe von 1800 ft
Aufgelockert bewölkt in der Höhe von 14000 ft
Schauer in der Nähe

TAF: PTSA 231727Z 2318/2418 12006KT P6SM VCSH FEW018 SCT140

Wetterbeobachtungen und Prognosen von mehr als 4000 Flughäfen (METAR und TAF Bericht).

Die verfügbaren Stationen werden durch gelbe und rote Markierungen auf der Karte dargestellt.

Führen Sie die Maus auf sie, um den Namen der Station zu sehen.

Darauf klicken, um die Beobachtung von Wetterbeobachtungen und Prognosen zu sehen.

Um die Karte zu ändern : klicken Sie auf den grünen Tasten mit einem schwarzen Kreuz Zum Vergrößern, auf den grünen Button mit einem Gedankenstrich zu verkleinern, oder auf die grünen Pfeile für benachbarte Karten.


METAR-TAF: